sensor_id;sensor_type;location;lat;lon;timestamp;pressure;altitude;pressure_sealevel;temperature;humidity
59831;BME280;45711;50.108;13.712;2023-05-28T00:01:07;98307.84;;;8.55;72.13
59831;BME280;45711;50.108;13.712;2023-05-28T00:03:44;98298.13;;;8.39;72.87
59831;BME280;45711;50.108;13.712;2023-05-28T00:06:09;98298.84;;;8.35;72.95
59831;BME280;45711;50.108;13.712;2023-05-28T00:08:40;98299.31;;;8.26;73.70
59831;BME280;45711;50.108;13.712;2023-05-28T00:11:14;98300.81;;;8.17;73.55
59831;BME280;45711;50.108;13.712;2023-05-28T00:13:55;98296.16;;;8.02;74.23
59831;BME280;45711;50.108;13.712;2023-05-28T00:17:39;98292.69;;;8.29;73.35
59831;BME280;45711;50.108;13.712;2023-05-28T00:19:33;98296.84;;;8.47;72.78
59831;BME280;45711;50.108;13.712;2023-05-28T00:27:08;98288.84;;;8.47;72.42
59831;BME280;45711;50.108;13.712;2023-05-28T00:28:02;98281.69;;;7.93;73.90
59831;BME280;45711;50.108;13.712;2023-05-28T00:30:38;98291.97;;;7.79;74.45
59831;BME280;45711;50.108;13.712;2023-05-28T00:36:05;98275.28;;;7.40;76.08
59831;BME280;45711;50.108;13.712;2023-05-28T00:38:49;98279.34;;;7.48;76.05
59831;BME280;45711;50.108;13.712;2023-05-28T00:44:28;98277.53;;;7.75;75.41
59831;BME280;45711;50.108;13.712;2023-05-28T00:47:32;98273.59;;;7.83;74.86
59831;BME280;45711;50.108;13.712;2023-05-28T00:49:58;98277.31;;;7.82;74.74
59831;BME280;45711;50.108;13.712;2023-05-28T00:53:01;98271.09;;;7.98;73.65
59831;BME280;45711;50.108;13.712;2023-05-28T00:55:29;98269.53;;;7.75;74.58
59831;BME280;45711;50.108;13.712;2023-05-28T00:58:02;98268.28;;;7.61;74.80
59831;BME280;45711;50.108;13.712;2023-05-28T01:00:40;98267.72;;;7.54;75.04
59831;BME280;45711;50.108;13.712;2023-05-28T01:03:22;98267.28;;;7.62;74.82
59831;BME280;45711;50.108;13.712;2023-05-28T01:06:01;98275.69;;;7.54;74.81
59831;BME280;45711;50.108;13.712;2023-05-28T01:09:00;98270.13;;;7.34;75.31
59831;BME280;45711;50.108;13.712;2023-05-28T01:11:40;98263.31;;;7.21;75.61
59831;BME280;45711;50.108;13.712;2023-05-28T01:14:28;98263.34;;;6.82;76.67
59831;BME280;45711;50.108;13.712;2023-05-28T01:17:12;98258.03;;;6.82;77.15
59831;BME280;45711;50.108;13.712;2023-05-28T01:19:52;98257.59;;;6.90;76.96
59831;BME280;45711;50.108;13.712;2023-05-28T01:22:25;98264.31;;;6.93;76.46
59831;BME280;45711;50.108;13.712;2023-05-28T01:25:21;98253.63;;;6.71;77.01
59831;BME280;45711;50.108;13.712;2023-05-28T01:29:28;98256.88;;;7.17;75.36
59831;BME280;45711;50.108;13.712;2023-05-28T01:31:19;98260.97;;;7.24;75.03
59831;BME280;45711;50.108;13.712;2023-05-28T01:33:53;98248.09;;;7.38;74.88
59831;BME280;45711;50.108;13.712;2023-05-28T01:36:32;98248.66;;;7.18;75.74
59831;BME280;45711;50.108;13.712;2023-05-28T01:39:37;98247.91;;;7.01;75.25
59831;BME280;45711;50.108;13.712;2023-05-28T01:42:49;98246.59;;;7.25;74.88
59831;BME280;45711;50.108;13.712;2023-05-28T01:51:35;98236.78;;;6.65;75.75
59831;BME280;45711;50.108;13.712;2023-05-28T01:54:26;98238.56;;;6.60;76.48
59831;BME280;45711;50.108;13.712;2023-05-28T01:56:57;98231.63;;;6.75;75.60
59831;BME280;45711;50.108;13.712;2023-05-28T01:59:33;98229.59;;;6.66;76.26
59831;BME280;45711;50.108;13.712;2023-05-28T02:02:13;98233.00;;;6.61;76.18
59831;BME280;45711;50.108;13.712;2023-05-28T02:05:56;98231.09;;;6.40;77.28
59831;BME280;45711;50.108;13.712;2023-05-28T02:07:50;98231.94;;;6.40;76.43
59831;BME280;45711;50.108;13.712;2023-05-28T02:10:28;98230.13;;;6.63;76.00
59831;BME280;45711;50.108;13.712;2023-05-28T02:13:56;98239.16;;;6.45;77.12
59831;BME280;45711;50.108;13.712;2023-05-28T02:16:23;98229.81;;;6.42;76.89
59831;BME280;45711;50.108;13.712;2023-05-28T02:18:59;98231.81;;;6.52;76.58
59831;BME280;45711;50.108;13.712;2023-05-28T02:21:30;98235.75;;;6.66;75.67
59831;BME280;45711;50.108;13.712;2023-05-28T02:24:00;98231.94;;;6.40;76.79
59831;BME280;45711;50.108;13.712;2023-05-28T02:26:29;98233.19;;;6.38;77.21
59831;BME280;45711;50.108;13.712;2023-05-28T02:29:34;98228.78;;;6.26;77.60
59831;BME280;45711;50.108;13.712;2023-05-28T02:32:05;98240.19;;;6.61;76.21
59831;BME280;45711;50.108;13.712;2023-05-28T02:34:34;98235.59;;;6.56;75.09
59831;BME280;45711;50.108;13.712;2023-05-28T02:37:02;98242.63;;;6.62;74.87
59831;BME280;45711;50.108;13.712;2023-05-28T02:39:31;98232.78;;;6.63;74.78
59831;BME280;45711;50.108;13.712;2023-05-28T02:42:08;98237.56;;;6.27;77.16
59831;BME280;45711;50.108;13.712;2023-05-28T02:44:36;98232.47;;;6.25;77.01
59831;BME280;45711;50.108;13.712;2023-05-28T02:47:08;98239.91;;;6.23;78.13
59831;BME280;45711;50.108;13.712;2023-05-28T02:49:37;98237.66;;;6.15;78.23
59831;BME280;45711;50.108;13.712;2023-05-28T02:52:04;98238.53;;;6.38;76.92
59831;BME280;45711;50.108;13.712;2023-05-28T02:54:37;98237.00;;;6.42;76.15
59831;BME280;45711;50.108;13.712;2023-05-28T02:57:03;98233.84;;;6.45;76.61
59831;BME280;45711;50.108;13.712;2023-05-28T02:59:30;98239.25;;;6.50;76.67
59831;BME280;45711;50.108;13.712;2023-05-28T03:01:56;98235.88;;;6.38;76.66
59831;BME280;45711;50.108;13.712;2023-05-28T03:04:23;98237.25;;;6.23;76.50
59831;BME280;45711;50.108;13.712;2023-05-28T03:06:49;98247.38;;;6.26;75.14
59831;BME280;45711;50.108;13.712;2023-05-28T03:09:17;98245.28;;;6.28;75.10
59831;BME280;45711;50.108;13.712;2023-05-28T03:11:43;98239.66;;;6.08;75.76
59831;BME280;45711;50.108;13.712;2023-05-28T03:14:09;98240.13;;;6.22;75.79
59831;BME280;45711;50.108;13.712;2023-05-28T03:16:36;98243.69;;;6.11;75.88
59831;BME280;45711;50.108;13.712;2023-05-28T03:22:26;98245.13;;;6.01;76.83
59831;BME280;45711;50.108;13.712;2023-05-28T03:25:05;98242.25;;;5.91;77.08
59831;BME280;45711;50.108;13.712;2023-05-28T03:27:48;98252.31;;;6.01;76.74
59831;BME280;45711;50.108;13.712;2023-05-28T03:30:14;98245.78;;;6.25;75.67
59831;BME280;45711;50.108;13.712;2023-05-28T03:32:40;98240.63;;;6.19;76.42
59831;BME280;45711;50.108;13.712;2023-05-28T03:35:09;98247.94;;;6.28;76.54
59831;BME280;45711;50.108;13.712;2023-05-28T03:37:36;98237.56;;;6.27;75.95
59831;BME280;45711;50.108;13.712;2023-05-28T03:40:02;98244.25;;;6.13;76.39
59831;BME280;45711;50.108;13.712;2023-05-28T03:42:30;98239.72;;;6.13;76.84
59831;BME280;45711;50.108;13.712;2023-05-28T03:44:58;98239.31;;;6.21;76.21
59831;BME280;45711;50.108;13.712;2023-05-28T03:47:24;98241.44;;;6.19;75.69
59831;BME280;45711;50.108;13.712;2023-05-28T03:49:51;98239.19;;;6.11;75.12
59831;BME280;45711;50.108;13.712;2023-05-28T03:52:17;98244.97;;;6.08;75.57
59831;BME280;45711;50.108;13.712;2023-05-28T03:54:44;98234.81;;;6.05;75.36
59831;BME280;45711;50.108;13.712;2023-05-28T03:57:13;98250.19;;;6.03;75.77
59831;BME280;45711;50.108;13.712;2023-05-28T03:59:41;98246.91;;;6.13;75.95
59831;BME280;45711;50.108;13.712;2023-05-28T04:02:07;98239.66;;;6.25;75.03
59831;BME280;45711;50.108;13.712;2023-05-28T04:04:33;98238.03;;;6.41;74.68
59831;BME280;45711;50.108;13.712;2023-05-28T04:07:01;98240.63;;;6.36;74.90
59831;BME280;45711;50.108;13.712;2023-05-28T04:09:30;98234.72;;;6.34;75.26
59831;BME280;45711;50.108;13.712;2023-05-28T04:11:58;98237.47;;;6.39;75.22
59831;BME280;45711;50.108;13.712;2023-05-28T04:14:26;98239.72;;;6.47;74.61
59831;BME280;45711;50.108;13.712;2023-05-28T04:16:55;98234.41;;;6.30;75.30
59831;BME280;45711;50.108;13.712;2023-05-28T04:19:23;98233.19;;;6.54;74.94
59831;BME280;45711;50.108;13.712;2023-05-28T04:21:54;98233.50;;;6.58;75.40
59831;BME280;45711;50.108;13.712;2023-05-28T04:24:19;98237.03;;;6.64;74.62
59831;BME280;45711;50.108;13.712;2023-05-28T04:26:46;98231.75;;;6.47;75.62
59831;BME280;45711;50.108;13.712;2023-05-28T04:29:13;98237.03;;;6.64;75.71
59831;BME280;45711;50.108;13.712;2023-05-28T04:31:44;98228.44;;;6.78;74.91
59831;BME280;45711;50.108;13.712;2023-05-28T04:34:10;98240.72;;;6.79;75.02
59831;BME280;45711;50.108;13.712;2023-05-28T04:36:36;98236.81;;;6.87;75.33
59831;BME280;45711;50.108;13.712;2023-05-28T04:39:04;98235.22;;;6.86;75.10
59831;BME280;45711;50.108;13.712;2023-05-28T04:41:30;98231.19;;;6.84;75.53
59831;BME280;45711;50.108;13.712;2023-05-28T04:43:57;98241.84;;;7.05;75.03
59831;BME280;45711;50.108;13.712;2023-05-28T04:46:28;98234.91;;;7.26;74.33
59831;BME280;45711;50.108;13.712;2023-05-28T04:48:55;98229.84;;;7.52;73.59
59831;BME280;45711;50.108;13.712;2023-05-28T04:51:21;98236.38;;;7.39;74.04
59831;BME280;45711;50.108;13.712;2023-05-28T04:53:47;98232.41;;;7.42;74.75
59831;BME280;45711;50.108;13.712;2023-05-28T04:56:13;98236.69;;;7.43;74.83
59831;BME280;45711;50.108;13.712;2023-05-28T04:58:39;98235.44;;;7.50;74.55
59831;BME280;45711;50.108;13.712;2023-05-28T05:01:08;98234.13;;;7.53;75.11
59831;BME280;45711;50.108;13.712;2023-05-28T05:03:41;98238.16;;;7.82;74.53
59831;BME280;45711;50.108;13.712;2023-05-28T05:06:09;98239.88;;;7.94;74.50
59831;BME280;45711;50.108;13.712;2023-05-28T05:08:36;98242.69;;;7.82;74.56
59831;BME280;45711;50.108;13.712;2023-05-28T05:11:04;98235.75;;;7.81;75.11
59831;BME280;45711;50.108;13.712;2023-05-28T05:13:34;98233.97;;;7.92;75.13
59831;BME280;45711;50.108;13.712;2023-05-28T05:16:00;98235.72;;;8.08;74.91
59831;BME280;45711;50.108;13.712;2023-05-28T05:18:26;98229.75;;;7.96;75.24
59831;BME280;45711;50.108;13.712;2023-05-28T05:21:06;98237.72;;;8.23;75.03
59831;BME280;45711;50.108;13.712;2023-05-28T05:23:35;98227.44;;;8.37;75.19
59831;BME280;45711;50.108;13.712;2023-05-28T05:26:01;98232.13;;;8.62;74.30
59831;BME280;45711;50.108;13.712;2023-05-28T05:28:33;98229.78;;;8.70;74.19
59831;BME280;45711;50.108;13.712;2023-05-28T05:31:01;98225.84;;;8.83;74.01
59831;BME280;45711;50.108;13.712;2023-05-28T05:33:27;98218.13;;;8.92;73.85
59831;BME280;45711;50.108;13.712;2023-05-28T05:35:53;98216.03;;;8.94;74.64
59831;BME280;45711;50.108;13.712;2023-05-28T05:38:20;98222.28;;;9.20;73.54
59831;BME280;45711;50.108;13.712;2023-05-28T05:40:46;98217.25;;;9.44;72.94
59831;BME280;45711;50.108;13.712;2023-05-28T05:43:17;98220.44;;;9.30;73.00
59831;BME280;45711;50.108;13.712;2023-05-28T05:45:45;98219.41;;;9.37;73.49
59831;BME280;45711;50.108;13.712;2023-05-28T05:48:25;98212.25;;;9.63;72.94
59831;BME280;45711;50.108;13.712;2023-05-28T05:50:57;98213.63;;;9.80;72.57
59831;BME280;45711;50.108;13.712;2023-05-28T05:53:30;98210.69;;;9.97;71.83
59831;BME280;45711;50.108;13.712;2023-05-28T05:55:58;98218.94;;;10.01;71.64
59831;BME280;45711;50.108;13.712;2023-05-28T05:58:24;98216.03;;;9.97;71.59
59831;BME280;45711;50.108;13.712;2023-05-28T06:00:50;98214.13;;;10.18;71.65
59831;BME280;45711;50.108;13.712;2023-05-28T06:03:19;98224.31;;;10.47;70.41
59831;BME280;45711;50.108;13.712;2023-05-28T06:09:38;98214.63;;;10.81;70.10
59831;BME280;45711;50.108;13.712;2023-05-28T06:13:09;98213.75;;;10.96;69.83
59831;BME280;45711;50.108;13.712;2023-05-28T06:15:21;98207.47;;;11.26;69.36
59831;BME280;45711;50.108;13.712;2023-05-28T06:17:49;98207.28;;;11.13;68.78
59831;BME280;45711;50.108;13.712;2023-05-28T06:20:22;98209.50;;;11.50;68.21
59831;BME280;45711;50.108;13.712;2023-05-28T06:22:48;98212.38;;;11.64;68.64
59831;BME280;45711;50.108;13.712;2023-05-28T06:25:15;98206.59;;;11.91;67.13
59831;BME280;45711;50.108;13.712;2023-05-28T06:27:41;98209.06;;;11.77;68.06
59831;BME280;45711;50.108;13.712;2023-05-28T06:30:08;98209.78;;;11.93;68.33
59831;BME280;45711;50.108;13.712;2023-05-28T06:32:34;98212.50;;;11.88;68.15
59831;BME280;45711;50.108;13.712;2023-05-28T06:35:00;98208.94;;;12.31;67.91
59831;BME280;45711;50.108;13.712;2023-05-28T06:37:27;98204.91;;;12.58;65.35
59831;BME280;45711;50.108;13.712;2023-05-28T06:39:53;98208.81;;;12.47;66.57
59831;BME280;45711;50.108;13.712;2023-05-28T06:42:25;98203.69;;;12.74;65.89
59831;BME280;45711;50.108;13.712;2023-05-28T06:44:50;98199.28;;;12.83;65.10
59831;BME280;45711;50.108;13.712;2023-05-28T06:47:16;98206.53;;;12.83;66.37
59831;BME280;45711;50.108;13.712;2023-05-28T06:49:42;98206.44;;;12.93;65.62
59831;BME280;45711;50.108;13.712;2023-05-28T06:52:08;98200.47;;;12.96;64.65
59831;BME280;45711;50.108;13.712;2023-05-28T06:54:33;98194.00;;;13.45;64.15
59831;BME280;45711;50.108;13.712;2023-05-28T06:57:20;98203.28;;;13.53;63.08
59831;BME280;45711;50.108;13.712;2023-05-28T07:06:07;98203.34;;;14.37;60.18
59831;BME280;45711;50.108;13.712;2023-05-28T07:08:38;98195.13;;;14.61;60.06
59831;BME280;45711;50.108;13.712;2023-05-28T07:11:12;98206.31;;;14.68;59.96
59831;BME280;45711;50.108;13.712;2023-05-28T07:13:46;98203.31;;;14.97;58.19
59831;BME280;45711;50.108;13.712;2023-05-28T07:16:12;98203.06;;;15.49;57.54
59831;BME280;45711;50.108;13.712;2023-05-28T07:18:40;98204.63;;;16.22;55.32
59831;BME280;45711;50.108;13.712;2023-05-28T07:22:23;98209.00;;;17.51;51.35
59831;BME280;45711;50.108;13.712;2023-05-28T07:24:13;98208.84;;;18.17;48.28
59831;BME280;45711;50.108;13.712;2023-05-28T07:27:12;98211.22;;;18.92;47.67
59831;BME280;45711;50.108;13.712;2023-05-28T07:33:04;98199.34;;;19.85;44.55
59831;BME280;45711;50.108;13.712;2023-05-28T07:35:47;98216.94;;;20.21;43.23
59831;BME280;45711;50.108;13.712;2023-05-28T07:38:40;98213.44;;;20.20;43.19
59831;BME280;45711;50.108;13.712;2023-05-28T07:41:09;98209.78;;;20.16;43.91
59831;BME280;45711;50.108;13.712;2023-05-28T07:43:53;98212.31;;;20.54;43.05
59831;BME280;45711;50.108;13.712;2023-05-28T07:46:19;98217.09;;;20.70;42.09
59831;BME280;45711;50.108;13.712;2023-05-28T07:48:47;98208.66;;;20.50;42.83
59831;BME280;45711;50.108;13.712;2023-05-28T07:51:16;98210.44;;;20.79;42.12
59831;BME280;45711;50.108;13.712;2023-05-28T07:53:54;98217.94;;;21.56;40.25
59831;BME280;45711;50.108;13.712;2023-05-28T07:56:25;98206.25;;;22.52;38.71
59831;BME280;45711;50.108;13.712;2023-05-28T07:59:10;98204.59;;;22.07;39.50
59831;BME280;45711;50.108;13.712;2023-05-28T08:01:44;98196.09;;;22.96;37.90
59831;BME280;45711;50.108;13.712;2023-05-28T08:04:35;98189.97;;;22.55;37.83
59831;BME280;45711;50.108;13.712;2023-05-28T08:07:45;98195.66;;;22.50;38.67
59831;BME280;45711;50.108;13.712;2023-05-28T08:13:09;98192.09;;;22.18;38.64
59831;BME280;45711;50.108;13.712;2023-05-28T08:15:58;98199.38;;;22.58;36.63
59831;BME280;45711;50.108;13.712;2023-05-28T08:18:33;98190.41;;;22.89;34.67
59831;BME280;45711;50.108;13.712;2023-05-28T08:21:21;98185.41;;;22.75;35.97
59831;BME280;45711;50.108;13.712;2023-05-28T08:27:35;98182.56;;;22.40;38.59
59831;BME280;45711;50.108;13.712;2023-05-28T08:30:13;98183.34;;;22.41;34.63
59831;BME280;45711;50.108;13.712;2023-05-28T08:32:52;98178.09;;;22.64;37.82
59831;BME280;45711;50.108;13.712;2023-05-28T08:35:18;98187.03;;;23.43;35.48
59831;BME280;45711;50.108;13.712;2023-05-28T08:40:38;98176.47;;;23.96;34.38
59831;BME280;45711;50.108;13.712;2023-05-28T08:43:08;98175.13;;;23.16;36.92
59831;BME280;45711;50.108;13.712;2023-05-28T08:45:53;98174.75;;;22.54;34.45
59831;BME280;45711;50.108;13.712;2023-05-28T08:48:20;98176.88;;;24.18;32.31
59831;BME280;45711;50.108;13.712;2023-05-28T08:50:49;98179.09;;;24.31;33.32
59831;BME280;45711;50.108;13.712;2023-05-28T08:53:16;98171.91;;;23.30;36.40
59831;BME280;45711;50.108;13.712;2023-05-28T08:55:58;98169.00;;;23.39;36.34
59831;BME280;45711;50.108;13.712;2023-05-28T08:58:27;98167.22;;;24.24;34.28
59831;BME280;45711;50.108;13.712;2023-05-28T09:00:56;98167.78;;;24.33;33.43
59831;BME280;45711;50.108;13.712;2023-05-28T09:03:27;98163.09;;;24.53;32.37
59831;BME280;45711;50.108;13.712;2023-05-28T09:05:55;98159.47;;;23.68;34.81
59831;BME280;45711;50.108;13.712;2023-05-28T09:18:04;98154.41;;;23.15;34.21
59831;BME280;45711;50.108;13.712;2023-05-28T09:20:48;98151.28;;;22.66;37.18
59831;BME280;45711;50.108;13.712;2023-05-28T09:23:39;98147.38;;;22.67;37.44
59831;BME280;45711;50.108;13.712;2023-05-28T09:29:43;98134.63;;;20.66;42.44
59831;BME280;45711;50.108;13.712;2023-05-28T09:32:38;98138.13;;;21.03;40.64
59831;BME280;45711;50.108;13.712;2023-05-28T09:41:57;98130.69;;;22.08;37.64
59831;BME280;45711;50.108;13.712;2023-05-28T09:44:46;98134.34;;;21.20;41.38
59831;BME280;45711;50.108;13.712;2023-05-28T09:47:19;98120.59;;;21.81;37.69
59831;BME280;45711;50.108;13.712;2023-05-28T09:50:15;98124.59;;;21.19;41.25
59831;BME280;45711;50.108;13.712;2023-05-28T09:52:54;98123.16;;;21.33;40.61
59831;BME280;45711;50.108;13.712;2023-05-28T09:55:32;98129.94;;;20.54;43.15
59831;BME280;45711;50.108;13.712;2023-05-28T09:58:38;98134.16;;;20.18;44.00
59831;BME280;45711;50.108;13.712;2023-05-28T10:01:10;98133.97;;;21.86;39.18
59831;BME280;45711;50.108;13.712;2023-05-28T10:03:48;98131.63;;;22.28;38.08
59831;BME280;45711;50.108;13.712;2023-05-28T10:06:19;98120.16;;;21.79;40.10
59831;BME280;45711;50.108;13.712;2023-05-28T10:09:21;98117.13;;;21.96;36.75
59831;BME280;45711;50.108;13.712;2023-05-28T10:12:08;98118.63;;;22.53;37.73
59831;BME280;45711;50.108;13.712;2023-05-28T10:14:41;98116.50;;;22.31;39.50
59831;BME280;45711;50.108;13.712;2023-05-28T10:17:17;98116.84;;;21.86;39.81
59831;BME280;45711;50.108;13.712;2023-05-28T10:19:44;98107.97;;;20.83;42.39
59831;BME280;45711;50.108;13.712;2023-05-28T10:22:32;98107.97;;;20.47;43.02
59831;BME280;45711;50.108;13.712;2023-05-28T10:25:02;98104.84;;;21.46;39.82
59831;BME280;45711;50.108;13.712;2023-05-28T10:27:48;98103.44;;;20.88;42.18
59831;BME280;45711;50.108;13.712;2023-05-28T10:30:58;98095.28;;;21.52;39.41
59831;BME280;45711;50.108;13.712;2023-05-28T10:33:51;98103.81;;;20.86;41.62
59831;BME280;45711;50.108;13.712;2023-05-28T10:36:57;98097.88;;;21.08;41.53
59831;BME280;45711;50.108;13.712;2023-05-28T10:39:43;98101.81;;;21.23;42.01
59831;BME280;45711;50.108;13.712;2023-05-28T10:42:18;98100.31;;;21.78;37.69
59831;BME280;45711;50.108;13.712;2023-05-28T10:45:36;98090.66;;;21.97;39.93
59831;BME280;45711;50.108;13.712;2023-05-28T10:48:19;98084.72;;;20.98;41.75
59831;BME280;45711;50.108;13.712;2023-05-28T10:51:20;98083.13;;;21.34;41.82
59831;BME280;45711;50.108;13.712;2023-05-28T10:53:51;98080.41;;;21.09;40.75
59831;BME280;45711;50.108;13.712;2023-05-28T10:56:42;98087.94;;;20.64;43.76
59831;BME280;45711;50.108;13.712;2023-05-28T10:59:42;98072.38;;;20.89;43.16
59831;BME280;45711;50.108;13.712;2023-05-28T11:02:17;98082.06;;;21.26;42.25
59831;BME280;45711;50.108;13.712;2023-05-28T11:05:16;98076.63;;;21.39;39.38
59831;BME280;45711;50.108;13.712;2023-05-28T11:07:45;98082.69;;;21.60;38.13
59831;BME280;45711;50.108;13.712;2023-05-28T11:10:17;98078.53;;;20.86;42.97
59831;BME280;45711;50.108;13.712;2023-05-28T11:12:46;98077.94;;;20.92;41.58
59831;BME280;45711;50.108;13.712;2023-05-28T11:15:16;98073.31;;;21.73;38.32
59831;BME280;45711;50.108;13.712;2023-05-28T11:17:46;98074.84;;;21.06;42.28
59831;BME280;45711;50.108;13.712;2023-05-28T11:20:19;98077.13;;;21.16;37.77
59831;BME280;45711;50.108;13.712;2023-05-28T11:22:45;98067.47;;;21.19;39.92
59831;BME280;45711;50.108;13.712;2023-05-28T11:25:11;98065.66;;;21.11;40.79
59831;BME280;45711;50.108;13.712;2023-05-28T11:27:38;98076.44;;;21.07;39.26
59831;BME280;45711;50.108;13.712;2023-05-28T11:30:15;98062.28;;;21.01;39.49
59831;BME280;45711;50.108;13.712;2023-05-28T11:32:55;98057.91;;;21.65;37.46
59831;BME280;45711;50.108;13.712;2023-05-28T11:35:34;98054.66;;;21.07;41.69
59831;BME280;45711;50.108;13.712;2023-05-28T11:38:17;98050.69;;;21.17;41.53
59831;BME280;45711;50.108;13.712;2023-05-28T11:40:46;98050.88;;;21.36;37.76
59831;BME280;45711;50.108;13.712;2023-05-28T11:43:34;98051.63;;;21.08;40.22
59831;BME280;45711;50.108;13.712;2023-05-28T11:46:10;98046.16;;;20.68;42.91
59831;BME280;45711;50.108;13.712;2023-05-28T11:48:38;98053.09;;;21.06;39.28
59831;BME280;45711;50.108;13.712;2023-05-28T11:51:08;98060.06;;;21.44;37.16
59831;BME280;45711;50.108;13.712;2023-05-28T11:53:48;98047.75;;;21.78;40.06
59831;BME280;45711;50.108;13.712;2023-05-28T11:56:22;98051.41;;;21.42;39.92
59831;BME280;45711;50.108;13.712;2023-05-28T12:02:33;98051.94;;;22.19;35.41
59831;BME280;45711;50.108;13.712;2023-05-28T12:05:01;98052.00;;;21.63;40.59
59831;BME280;45711;50.108;13.712;2023-05-28T12:10:29;98043.72;;;21.44;37.06
59831;BME280;45711;50.108;13.712;2023-05-28T12:12:59;98042.72;;;21.24;38.09
59831;BME280;45711;50.108;13.712;2023-05-28T12:15:35;98048.81;;;20.93;42.86
59831;BME280;45711;50.108;13.712;2023-05-28T12:18:01;98033.28;;;20.93;41.15
59831;BME280;45711;50.108;13.712;2023-05-28T12:20:29;98052.94;;;20.50;43.10
59831;BME280;45711;50.108;13.712;2023-05-28T12:23:06;98044.75;;;20.38;41.95
59831;BME280;45711;50.108;13.712;2023-05-28T12:25:47;98043.44;;;20.68;42.96
59831;BME280;45711;50.108;13.712;2023-05-28T12:28:15;98040.53;;;20.89;39.02
59831;BME280;45711;50.108;13.712;2023-05-28T12:30:43;98041.59;;;21.25;42.33
59831;BME280;45711;50.108;13.712;2023-05-28T12:33:14;98028.97;;;21.04;38.68
59831;BME280;45711;50.108;13.712;2023-05-28T12:35:39;98034.84;;;21.06;42.36
59831;BME280;45711;50.108;13.712;2023-05-28T12:38:05;98029.72;;;20.52;40.37
59831;BME280;45711;50.108;13.712;2023-05-28T12:43:41;98017.63;;;21.43;38.22
59831;BME280;45711;50.108;13.712;2023-05-28T12:46:15;98025.50;;;21.76;38.50
59831;BME280;45711;50.108;13.712;2023-05-28T12:48:43;98018.03;;;21.17;42.12
59831;BME280;45711;50.108;13.712;2023-05-28T12:51:12;98032.72;;;21.00;43.07
59831;BME280;45711;50.108;13.712;2023-05-28T12:53:48;98019.16;;;20.39;42.15
59831;BME280;45711;50.108;13.712;2023-05-28T12:56:13;98022.28;;;21.42;38.21
59831;BME280;45711;50.108;13.712;2023-05-28T12:58:43;98017.25;;;21.16;40.82
59831;BME280;45711;50.108;13.712;2023-05-28T13:01:09;98020.31;;;21.15;42.89
59831;BME280;45711;50.108;13.712;2023-05-28T13:03:35;98009.09;;;21.16;40.46
59831;BME280;45711;50.108;13.712;2023-05-28T13:06:18;98004.19;;;20.81;44.13
59831;BME280;45711;50.108;13.712;2023-05-28T13:08:52;98005.19;;;21.57;37.20
59831;BME280;45711;50.108;13.712;2023-05-28T13:11:24;98008.06;;;21.21;39.60
59831;BME280;45711;50.108;13.712;2023-05-28T13:13:52;98004.28;;;21.81;37.52
59831;BME280;45711;50.108;13.712;2023-05-28T13:16:18;98001.75;;;21.45;38.53
59831;BME280;45711;50.108;13.712;2023-05-28T13:18:47;97996.38;;;20.80;43.41
59831;BME280;45711;50.108;13.712;2023-05-28T13:21:12;98001.88;;;21.08;38.45
59831;BME280;45711;50.108;13.712;2023-05-28T13:23:41;98000.09;;;20.88;40.02
59831;BME280;45711;50.108;13.712;2023-05-28T13:26:10;97994.50;;;20.56;42.36
59831;BME280;45711;50.108;13.712;2023-05-28T13:28:40;97998.09;;;20.72;41.61
59831;BME280;45711;50.108;13.712;2023-05-28T13:31:12;97989.81;;;20.44;45.38
59831;BME280;45711;50.108;13.712;2023-05-28T13:33:39;97999.38;;;21.31;39.81
59831;BME280;45711;50.108;13.712;2023-05-28T13:36:06;97997.50;;;20.79;43.07
59831;BME280;45711;50.108;13.712;2023-05-28T13:38:34;97989.09;;;21.24;38.10
59831;BME280;45711;50.108;13.712;2023-05-28T13:41:00;98000.81;;;21.13;38.99
59831;BME280;45711;50.108;13.712;2023-05-28T13:43:28;97990.50;;;20.78;41.30
59831;BME280;45711;50.108;13.712;2023-05-28T13:45:54;97987.75;;;21.18;40.47
59831;BME280;45711;50.108;13.712;2023-05-28T13:48:22;97996.19;;;20.48;38.48
59831;BME280;45711;50.108;13.712;2023-05-28T13:50:52;97997.88;;;20.28;44.86
59831;BME280;45711;50.108;13.712;2023-05-28T13:53:17;97983.41;;;20.24;41.34
59831;BME280;45711;50.108;13.712;2023-05-28T13:55:43;97986.13;;;19.67;45.56
59831;BME280;45711;50.108;13.712;2023-05-28T13:58:09;97983.72;;;20.11;43.79
59831;BME280;45711;50.108;13.712;2023-05-28T14:00:36;97973.03;;;20.79;39.61
59831;BME280;45711;50.108;13.712;2023-05-28T14:03:30;97971.84;;;20.03;44.79
59831;BME280;45711;50.108;13.712;2023-05-28T14:06:01;97974.97;;;19.93;46.52
59831;BME280;45711;50.108;13.712;2023-05-28T14:08:27;97963.91;;;20.34;42.00
59831;BME280;45711;50.108;13.712;2023-05-28T14:10:53;97966.16;;;20.69;38.91
59831;BME280;45711;50.108;13.712;2023-05-28T14:13:19;97966.41;;;20.64;42.41
59831;BME280;45711;50.108;13.712;2023-05-28T14:15:44;97960.72;;;20.57;40.43
59831;BME280;45711;50.108;13.712;2023-05-28T14:18:16;97962.88;;;20.27;39.52
59831;BME280;45711;50.108;13.712;2023-05-28T14:23:58;97962.09;;;20.26;45.34
59831;BME280;45711;50.108;13.712;2023-05-28T14:26:37;97950.84;;;20.77;38.50
59831;BME280;45711;50.108;13.712;2023-05-28T14:29:06;97949.06;;;20.97;38.37
59831;BME280;45711;50.108;13.712;2023-05-28T14:31:52;97948.59;;;20.67;44.21
59831;BME280;45711;50.108;13.712;2023-05-28T14:34:21;97950.88;;;20.65;40.50
59831;BME280;45711;50.108;13.712;2023-05-28T14:36:47;97945.06;;;21.06;35.97
59831;BME280;45711;50.108;13.712;2023-05-28T14:39:31;97942.09;;;20.83;38.72
59831;BME280;45711;50.108;13.712;2023-05-28T14:42:14;97951.56;;;20.49;44.48
59831;BME280;45711;50.108;13.712;2023-05-28T14:44:45;97946.09;;;20.37;44.23
59831;BME280;45711;50.108;13.712;2023-05-28T14:47:16;97946.25;;;20.93;36.34